地図

経路データ

SID SEASON NUMBER BASIN SUBBASIN NAME ISO_TIME NATURE LAT LON WMO_WIND WMO_PRES WMO_AGENCY TRACK_TYPE DIST2LAND LANDFALL IFLAG USA_AGENCY USA_ATCF_ID USA_LAT USA_LON USA_RECORD USA_STATUS USA_WIND USA_PRES USA_SSHS USA_R34_NE USA_R34_SE USA_R34_SW USA_R34_NW USA_R50_NE USA_R50_SE USA_R50_SW USA_R50_NW USA_R64_NE USA_R64_SE USA_R64_SW USA_R64_NW USA_POCI USA_ROCI USA_RMW USA_EYE TOKYO_LAT TOKYO_LON TOKYO_GRADE TOKYO_WIND TOKYO_PRES TOKYO_R50_DIR TOKYO_R50_LONG TOKYO_R50_SHORT TOKYO_R30_DIR TOKYO_R30_LONG TOKYO_R30_SHORT TOKYO_LAND CMA_LAT CMA_LON CMA_CAT CMA_WIND CMA_PRES HKO_LAT HKO_LON HKO_CAT HKO_WIND HKO_PRES NEWDELHI_LAT NEWDELHI_LON NEWDELHI_GRADE NEWDELHI_WIND NEWDELHI_PRES NEWDELHI_CI NEWDELHI_DP NEWDELHI_POCI REUNION_LAT REUNION_LON REUNION_TYPE REUNION_WIND REUNION_PRES REUNION_TNUM REUNION_CI REUNION_RMW REUNION_R34_NE REUNION_R34_SE REUNION_R34_SW REUNION_R34_NW REUNION_R50_NE REUNION_R50_SE REUNION_R50_SW REUNION_R50_NW REUNION_R64_NE REUNION_R64_SE REUNION_R64_SW REUNION_R64_NW BOM_LAT BOM_LON BOM_TYPE BOM_WIND BOM_PRES BOM_TNUM BOM_CI BOM_RMW BOM_R34_NE BOM_R34_SE BOM_R34_SW BOM_R34_NW BOM_R50_NE BOM_R50_SE BOM_R50_SW BOM_R50_NW BOM_R64_NE BOM_R64_SE BOM_R64_SW BOM_R64_NW BOM_ROCI BOM_POCI BOM_EYE BOM_POS_METHOD BOM_PRES_METHOD NADI_LAT NADI_LON NADI_CAT NADI_WIND NADI_PRES WELLINGTON_LAT WELLINGTON_LON WELLINGTON_WIND WELLINGTON_PRES DS824_LAT DS824_LON DS824_STAGE DS824_WIND DS824_PRES TD9636_LAT TD9636_LON TD9636_STAGE TD9636_WIND TD9636_PRES TD9635_LAT TD9635_LON TD9635_WIND TD9635_PRES TD9635_ROCI NEUMANN_LAT NEUMANN_LON NEUMANN_CLASS NEUMANN_WIND NEUMANN_PRES MLC_LAT MLC_LON MLC_CLASS MLC_WIND MLC_PRES USA_GUST BOM_GUST BOM_GUST_PER REUNION_GUST REUNION_GUST_PER USA_SEAHGT USA_SEARAD_NE USA_SEARAD_SE USA_SEARAD_SW USA_SEARAD_NW STORM_SPEED STORM_DIR
1959040S13060 1959 16 SI MM NOT_NAMED 1959-02-09 06:00:00 TS -13.3000 60.0000 main 799 785 O________OO___ jtwc_sh SH171959 -13.3000 60.0000 -1 -13.3000 60.0000 TC 25 -13.3000 60.0000 7 4 212
1959040S13060 1959 16 SI MM NOT_NAMED 1959-02-09 09:00:00 TS -13.4504 59.8995 main 774 760 P________PP___ SH171959 -13.4475 59.9000 -1 -13.4475 59.9000 TC 25 -13.4563 59.8985 7 4 213
1959040S13060 1959 16 SI MM NOT_NAMED 1959-02-09 12:00:00 TS -13.6033 59.7992 main 760 747 O________OP___ jtwc_sh SH171959 -13.6000 59.8000 -1 -13.6000 59.8000 TC 25 -13.6100 59.7976 7 4 212
1959040S13060 1959 16 SI MM NOT_NAMED 1959-02-09 15:00:00 TS -13.7579 59.6993 main 736 722 P________PP___ SH171959 -13.7575 59.7000 -1 -13.7575 59.7000 TC 25 -13.7588 59.6979 7 4 213
1959040S13060 1959 16 SI MM NOT_NAMED 1959-02-09 18:00:00 TS -13.9000 59.6000 main 722 708 O________OO___ jtwc_sh SH171959 -13.9000 59.6000 -1 -13.9000 59.6000 TC 25 -13.9000 59.6000 7 3 218
1959040S13060 1959 16 SI MM NOT_NAMED 1959-02-09 21:00:00 TS -14.0107 59.4969 main 708 695 P________PP___ SH171959 -14.0000 59.4925 -1 -14.0000 59.4925 TC 25 -14.0322 59.5056 7 3 220
1959040S13060 1959 16 SI MM NOT_NAMED 1959-02-10 00:00:00 TS -14.1192 59.4067 main 695 681 O________OP___ jtwc_sh SH171959 -14.1000 59.4000 -1 -14.1000 59.4000 TC 25 -14.1575 59.4200 7 3 212
1959040S13060 1959 16 SI MM NOT_NAMED 1959-02-10 03:00:00 TS -14.2547 59.3398 main 670 646 P________PP___ SH171959 -14.2425 59.3350 -1 -14.2425 59.3350 TC 25 -14.2791 59.3494 7 4 206
1959040S13060 1959 16 SI MM NOT_NAMED 1959-02-10 06:00:00 TS -14.5077 59.2077 reunion main 646 622 O____O___OO___ jtwc_sh SH171959 -14.4000 59.3000 -1 -15.8000 58.1000 99 9.90000 -14.4000 59.3000 TC 25 -14.4000 59.3000 7 5 205
1959040S13060 1959 16 SI MM NOT_NAMED 1959-02-10 09:00:00 TS -14.7209 59.1164 main 622 600 P____P___PP___ SH171959 -14.5575 59.2925 -1 -15.7499 58.0965 99 -14.5575 59.2925 TC 25 -14.5331 59.2743 7 4 202
1959040S13060 1959 16 SI MM NOT_NAMED 1959-02-10 12:00:00 TS -14.8909 59.0516 main 600 587 O____P___OP___ jtwc_sh SH171959 -14.7000 59.3000 -1 -15.7010 58.0981 99 -14.7000 59.3000 TC 25 -14.6650 59.2699 7 3 201
1959040S13060 1959 16 SI MM NOT_NAMED 1959-02-10 15:00:00 TS -15.0147 58.9976 main 587 576 P____P___PP___ SH171959 -14.8075 59.3000 -1 -15.6546 58.1099 99 -14.8075 59.3000 TC 25 -14.7894 59.2806 7 2 190
1959040S13060 1959 16 SI MM NOT_NAMED 1959-02-10 18:00:00 TS -15.0779 59.0092 main 576 576 O____P___OO___ jtwc_sh SH171959 -14.9000 59.3000 -1 -15.6117 58.1369 99 -14.9000 59.3000 TC 25 -14.9000 59.3000 7 1 171
1959040S13060 1959 16 SI MM NOT_NAMED 1959-02-10 21:00:00 TS -15.1445 59.0218 main 576 565 P____P___PP___ SH171959 -15.0075 59.2925 -1 -15.5736 58.1844 99 -15.0075 59.2925 TC 25 -14.9894 59.3178 7 1 161
1959040S13060 1959 16 SI MM NOT_NAMED 1959-02-11 00:00:00 TS -15.2016 59.0500 main 565 565 O____P___OP___ jtwc_sh SH171959 -15.1000 59.3000 -1 -15.5415 58.2573 99 -15.1000 59.3000 TC 25 -15.0650 59.3425 7 1 141
1959040S13060 1959 16 SI MM NOT_NAMED 1959-02-11 03:00:00 TS -15.2412 59.1079 main 567 557 P____P___PP___ SH171959 -15.1575 59.3500 -1 -15.5166 58.3608 99 -15.1575 59.3500 TC 25 -15.1331 59.3709 7 1 122
1959040S13060 1959 16 SI MM NOT_NAMED 1959-02-11 06:00:00 TS -15.2750 59.1750 reunion main 560 560 O____O___OO___ jtwc_sh SH171959 -15.2000 59.4000 -1 -15.5000 58.5000 99 9.90000 -15.2000 59.4000 TC 25 -15.2000 59.4000 7 1 123
1959040S13060 1959 16 SI MM NOT_NAMED 1959-02-11 09:00:00 TS -15.3133 59.2237 main 560 552 P____P___PP___ SH171959 -15.2425 59.4000 -1 -15.4934 58.6778 99 -15.2425 59.4000 TC 25 -15.2750 59.4169 7 1 130
1959040S13060 1959 16 SI MM NOT_NAMED 1959-02-11 12:00:00 TS -15.3627 59.2808 main 552 552 O____P___OP___ jtwc_sh SH171959 -15.3000 59.4000 -1 -15.5008 58.8883 99 -15.3000 59.4000 TC 25 -15.3500 59.4350 7 2 132
1959040S13060 1959 16 SI MM NOT_NAMED 1959-02-11 15:00:00 TS -15.4380 59.3674 main 555 545 P____P___PP___ SH171959 -15.4000 59.4425 -1 -15.5269 59.1238 99 -15.4000 59.4425 TC 25 -15.4250 59.4607 7 2 131
1959040S13060 1959 16 SI MM NOT_NAMED 1959-02-11 18:00:00 TS -15.5191 59.4691 main 548 538 O____P___OO___ jtwc_sh SH171959 -15.5000 59.5000 -1 -15.5762 59.3764 99 -15.5000 59.5000 TC 25 -15.5000 59.5000 7 2 125
1959040S13060 1959 16 SI MM NOT_NAMED 1959-02-11 21:00:00 TS -15.5730 59.5689 main 542 542 P____P___PP___ SH171959 -15.5500 59.5425 -1 -15.6535 59.6380 99 -15.5500 59.5425 TC 25 -15.5384 59.5527 7 2 120
1959040S13060 1959 16 SI MM NOT_NAMED 1959-02-12 00:00:00 TS -15.6365 59.6803 main 546 535 O____P___OP___ jtwc_sh SH171959 -15.6000 59.6000 -1 -15.7633 59.9011 99 -15.6000 59.6000 TC 25 -15.5825 59.6203 7 3 124
1959040S13060 1959 16 SI MM NOT_NAMED 1959-02-12 03:00:00 TS -15.7277 59.8114 main 540 524 P____P___PP___ SH171959 -15.6700 59.6925 -1 -15.9106 60.1577 99 -15.6700 59.6925 TC 30 -15.6603 59.7027 7 4 133
1959040S13060 1959 16 SI MM NOT_NAMED 1959-02-12 06:00:00 TS -15.8750 59.9500 reunion main 529 514 O____O___OO___ jtwc_sh SH171959 -15.8000 59.8000 -1 -16.1000 60.4000 99 9.90000 -15.8000 59.8000 TC 35 -15.8000 59.8000 2 4 145
1959040S13060 1959 16 SI MM NOT_NAMED 1959-02-12 09:00:00 TS -16.0907 60.0720 main 514 490 P____P___PP___ SH171959 -16.0125 59.8926 -1 -16.3149 60.6003 99 -16.0125 59.8926 TC 35 -16.0231 59.9026 2 6 154
1959040S13060 1959 16 SI MM NOT_NAMED 1959-02-12 12:00:00 TS -16.3703 60.2026 main 490 468 O____P___OP___ jtwc_sh SH171959 -16.3000 60.0000 -1 -16.5711 60.7904 99 -16.3000 60.0000 TC 35 -16.3100 60.0201 2 7 156
1959040S13060 1959 16 SI MM NOT_NAMED 1959-02-12 15:00:00 TS -16.6943 60.3486 main 468 455 P____P___PP___ SH171959 -16.6350 60.1350 -1 -16.8655 60.9718 99 -16.6350 60.1350 TC 35 -16.6419 60.1526 2 7 156
1959040S13060 1959 16 SI MM NOT_NAMED 1959-02-12 18:00:00 TS -17.0487 60.5115 main 455 437 O____P___OO___ jtwc_sh SH171959 -17.0000 60.3000 -1 -17.1950 61.1460 99 -17.0000 60.3000 TC 35 -17.0000 60.3000 2 8 155
1959040S13060 1959 16 SI MM NOT_NAMED 1959-02-12 21:00:00 TS -17.3916 60.6958 main 437 422 P____P___PP___ SH171959 -17.3425 60.5000 -1 -17.5562 61.3144 99 -17.3425 60.5000 TC 35 -17.3251 60.4688 2 8 153
1959040S13060 1959 16 SI MM NOT_NAMED 1959-02-13 00:00:00 TS -17.7554 60.8822 main 423 412 O____P___OP___ jtwc_sh SH171959 -17.7000 60.7000 -1 -17.9463 61.4785 99 -17.7000 60.7000 TC 35 -17.6751 60.6501 2 8 156
1959040S13060 1959 16 SI MM NOT_NAMED 1959-02-13 03:00:00 TS -18.1411 61.0466 main 412 404 P____P___PP___ SH171959 -18.0700 60.8577 -1 -18.3619 61.6399 99 -18.0700 60.8577 TC 35 -18.0626 60.8314 2 9 160
1959040S13060 1959 16 SI MM NOT_NAMED 1959-02-13 06:00:00 TS -18.5750 61.2000 reunion main 403 390 O____O___OO___ jtwc_sh SH171959 -18.5000 61.0000 -1 -18.8000 61.8000 99 9.90000 -18.5000 61.0000 TC 35 -18.5000 61.0000 2 10 163
1959040S13060 1959 16 SI MM NOT_NAMED 1959-02-13 09:00:00 TS -19.0860 61.3511 main 400 386 P____P___PP___ SH171959 -19.0275 61.1575 -1 -19.2774 61.9538 99 -19.0275 61.1575 TC 35 -19.0118 61.1356 2 11 165
1959040S13060 1959 16 SI MM NOT_NAMED 1959-02-13 12:00:00 TS -19.6392 61.4904 main 394 388 O____P___OP___ jtwc_sh SH171959 -19.6000 61.3000 -1 -19.7870 62.1038 99 -19.6000 61.3000 TC 35 -19.5699 61.2579 2 11 168
1959040S13060 1959 16 SI MM NOT_NAMED 1959-02-13 15:00:00 TS -20.1972 61.6075 main 396 396 P____P___PP___ SH171959 -20.1650 61.4002 -1 -20.3159 62.2532 99 -20.1650 61.4002 TC 35 -20.1431 61.3762 2 11 169
1959040S13060 1959 16 SI MM NOT_NAMED 1959-02-13 18:00:00 TS -20.7379 61.7263 main 408 408 O____P___OO___ jtwc_sh SH171959 -20.7000 61.5000 -1 -20.8514 62.4051 99 -20.7000 61.5000 TC 35 -20.7000 61.5000 2 10 166
1959040S13060 1959 16 SI MM NOT_NAMED 1959-02-13 21:00:00 TS -21.2078 61.8787 main 437 437 P____P___PP___ SH171959 -21.1575 61.6426 -1 -21.3805 62.5626 99 -21.1575 61.6426 TC 35 -21.1358 61.6671 2 10 162
1959040S13060 1959 16 SI MM NOT_NAMED 1959-02-14 00:00:00 TS -21.6626 62.0415 main 463 463 O____P___OP___ jtwc_sh SH171959 -21.6000 61.8000 -1 -21.8902 62.7289 99 -21.6000 61.8000 TC 35 -21.5603 61.8372 2 10 161
1959040S13060 1959 16 SI MM NOT_NAMED 1959-02-14 03:00:00 TS -22.1231 62.2101 main 498 498 P____P___PP___ SH171959 -22.0475 61.9724 -1 -22.3677 62.9070 99 -22.0475 61.9724 TC 35 -22.0296 61.9887 2 10 164
1959040S13060 1959 16 SI MM NOT_NAMED 1959-02-14 06:00:00 TS -22.6500 62.3500 reunion main 539 530 O____O___OO___ jtwc_sh SH171959 -22.6000 62.1000 -1 -22.8000 63.1000 99 9.90000 -22.6000 62.1000 TC 35 -22.6000 62.1000 2 12 171
1959040S13060 1959 16 SI MM NOT_NAMED 1959-02-14 09:00:00 TS -23.2979 62.4105 main 576 576 P____P___PP___ SH171959 -23.3400 62.1228 -1 -23.1776 63.3101 99 -23.3400 62.1228 TC 35 -23.3339 62.0862 2 14 176
1959040S13060 1959 16 SI MM NOT_NAMED 1959-02-14 12:00:00 TS -24.0192 62.4437 main 621 621 O____P___OP___ jtwc_sh SH171959 -24.2000 62.1000 -1 -23.5044 63.5359 99 -24.2000 62.1000 TC 35 -24.1723 62.0389 2 15 177
1959040S13060 1959 16 SI MM NOT_NAMED 1959-02-14 15:00:00 TS -24.7580 62.4809 main 687 687 P____P___PP___ SH171959 -25.0849 62.0634 -1 -23.7875 63.7753 99 -25.0849 62.0634 TC 35 -25.0744 62.0217 2 15 175
1959040S13060 1959 16 SI MM NOT_NAMED 1959-02-14 18:00:00 TS -25.5086 62.5815 main 750 750 O____P___OO___ jtwc_sh SH171959 -26.0000 62.1000 -1 -24.0342 64.0261 99 -26.0000 62.1000 TC 35 -26.0000 62.1000 2 15 169
1959040S13060 1959 16 SI MM NOT_NAMED 1959-02-14 21:00:00 TS -26.2418 62.7903 main 822 822 P____P___PP___ SH171959 -26.8998 62.2755 -1 -24.2516 64.2861 99 -26.8998 62.2755 TC 35 -26.9160 62.3239 2 15 162
1959040S13060 1959 16 SI MM NOT_NAMED 1959-02-15 00:00:00 TS -26.9665 63.1068 main 910 910 O____P___OP___ jtwc_sh SH171959 -27.8000 62.6000 -1 -24.4469 64.5532 99 -27.8000 62.6000 TC 35 -27.8191 62.6741 2 16 156
1959040S13060 1959 16 SI MM NOT_NAMED 1959-02-15 03:00:00 TS -27.6852 63.5146 main 996 996 P____P___PP___ SH171959 -28.7006 63.0604 -1 -24.6273 64.8252 99 -28.7006 63.0604 TC 35 -28.7126 63.1126 2 16 152
1959040S13060 1959 16 SI MM NOT_NAMED 1959-02-15 06:00:00 TS -28.4000 63.9750 reunion main 1088 O____O___OO___ jtwc_sh SH171959 -29.6000 63.6000 -1 -24.8000 65.1000 99 9.90000 -29.6000 63.6000 TC 35 -29.6000 63.6000 2 16 150

IBTrACS Databaseについて

本データベースは、米国NOAAが公開する1842年以降の世界の熱帯低気圧のベストトラックデータアーカイブInternational Best Track Archive for Climate Stewardship (IBTrACS)を、ウェブで閲覧しやすい形式に変換したものです。

最終更新日:2021-11-26